sensor_id;sensor_type;location;lat;lon;timestamp;pressure;altitude;pressure_sealevel;temperature;humidity
12879;BME280;20617;49.476;10.986;2023-02-16T00:00:22;99408.91;;;1.95;100.00
12879;BME280;20617;49.476;10.986;2023-02-16T00:02:27;99414.09;;;1.98;100.00
12879;BME280;20617;49.476;10.986;2023-02-16T00:04:32;99413.22;;;1.96;100.00
12879;BME280;20617;49.476;10.986;2023-02-16T00:06:36;99405.50;;;1.96;100.00
12879;BME280;20617;49.476;10.986;2023-02-16T00:08:45;99411.47;;;1.93;100.00
12879;BME280;20617;49.476;10.986;2023-02-16T00:10:55;99407.97;;;1.88;100.00
12879;BME280;20617;49.476;10.986;2023-02-16T00:13:22;99408.84;;;1.87;100.00
12879;BME280;20617;49.476;10.986;2023-02-16T00:15:40;99413.03;;;1.82;100.00
12879;BME280;20617;49.476;10.986;2023-02-16T00:17:45;99413.00;;;1.79;100.00
12879;BME280;20617;49.476;10.986;2023-02-16T00:19:50;99411.25;;;1.75;100.00
12879;BME280;20617;49.476;10.986;2023-02-16T00:21:59;99406.16;;;1.78;100.00
12879;BME280;20617;49.476;10.986;2023-02-16T00:24:04;99406.94;;;1.74;100.00
12879;BME280;20617;49.476;10.986;2023-02-16T00:26:16;99412.00;;;1.66;100.00
12879;BME280;20617;49.476;10.986;2023-02-16T00:28:22;99401.72;;;1.63;100.00
12879;BME280;20617;49.476;10.986;2023-02-16T00:30:26;99396.56;;;1.63;100.00
12879;BME280;20617;49.476;10.986;2023-02-16T00:32:31;99392.28;;;1.61;100.00
12879;BME280;20617;49.476;10.986;2023-02-16T00:34:39;99385.44;;;1.61;100.00
12879;BME280;20617;49.476;10.986;2023-02-16T00:36:44;99393.88;;;1.52;100.00
12879;BME280;20617;49.476;10.986;2023-02-16T00:38:49;99398.13;;;1.49;100.00
12879;BME280;20617;49.476;10.986;2023-02-16T00:40:54;99395.53;;;1.49;100.00
12879;BME280;20617;49.476;10.986;2023-02-16T00:43:02;99398.13;;;1.50;100.00
12879;BME280;20617;49.476;10.986;2023-02-16T00:45:13;99398.13;;;1.50;100.00
12879;BME280;20617;49.476;10.986;2023-02-16T00:47:21;99396.28;;;1.40;100.00
12879;BME280;20617;49.476;10.986;2023-02-16T00:49:26;99393.69;;;1.39;100.00
12879;BME280;20617;49.476;10.986;2023-02-16T00:51:31;99404.69;;;1.30;100.00
12879;BME280;20617;49.476;10.986;2023-02-16T00:53:36;99396.19;;;1.31;100.00
12879;BME280;20617;49.476;10.986;2023-02-16T00:55:42;99397.81;;;1.27;100.00
12879;BME280;20617;49.476;10.986;2023-02-16T00:57:50;99396.03;;;1.22;100.00
12879;BME280;20617;49.476;10.986;2023-02-16T01:00:06;99401.16;;;1.20;100.00
12879;BME280;20617;49.476;10.986;2023-02-16T01:02:11;99400.22;;;1.13;100.00
12879;BME280;20617;49.476;10.986;2023-02-16T01:04:21;99401.94;;;1.15;100.00
12879;BME280;20617;49.476;10.986;2023-02-16T01:06:27;99398.47;;;1.11;100.00
12879;BME280;20617;49.476;10.986;2023-02-16T01:08:44;99406.03;;;1.03;100.00
12879;BME280;20617;49.476;10.986;2023-02-16T01:11:03;99400.81;;;0.97;100.00
12879;BME280;20617;49.476;10.986;2023-02-16T01:13:14;99401.72;;;0.99;100.00
12879;BME280;20617;49.476;10.986;2023-02-16T01:15:24;99402.56;;;1.01;100.00
12879;BME280;20617;49.476;10.986;2023-02-16T01:17:29;99404.28;;;1.01;100.00
12879;BME280;20617;49.476;10.986;2023-02-16T01:19:34;99392.22;;;0.95;100.00
12879;BME280;20617;49.476;10.986;2023-02-16T01:21:39;99392.19;;;0.90;100.00
12879;BME280;20617;49.476;10.986;2023-02-16T01:23:44;99395.56;;;0.88;100.00
12879;BME280;20617;49.476;10.986;2023-02-16T01:25:49;99393.00;;;0.89;100.00
12879;BME280;20617;49.476;10.986;2023-02-16T01:27:54;99393.84;;;0.90;100.00
12879;BME280;20617;49.476;10.986;2023-02-16T01:29:58;99388.81;;;0.95;100.00
12879;BME280;20617;49.476;10.986;2023-02-16T01:32:06;99391.38;;;0.95;100.00
12879;BME280;20617;49.476;10.986;2023-02-16T01:34:11;99387.19;;;1.00;100.00
12879;BME280;20617;49.476;10.986;2023-02-16T01:36:22;99380.41;;;1.03;100.00
12879;BME280;20617;49.476;10.986;2023-02-16T01:38:28;99377.81;;;1.03;100.00
12879;BME280;20617;49.476;10.986;2023-02-16T01:40:39;99372.69;;;1.03;100.00
12879;BME280;20617;49.476;10.986;2023-02-16T01:42:48;99377.78;;;1.00;100.00
12879;BME280;20617;49.476;10.986;2023-02-16T01:44:58;99376.97;;;1.03;100.00
12879;BME280;20617;49.476;10.986;2023-02-16T01:47:14;99377.78;;;1.02;100.00
12879;BME280;20617;49.476;10.986;2023-02-16T01:49:22;99376.06;;;1.01;100.00
12879;BME280;20617;49.476;10.986;2023-02-16T01:51:29;99371.81;;;1.01;100.00
12879;BME280;20617;49.476;10.986;2023-02-16T01:53:39;99369.19;;;0.98;100.00
12879;BME280;20617;49.476;10.986;2023-02-16T01:55:48;99363.22;;;0.96;100.00
12879;BME280;20617;49.476;10.986;2023-02-16T01:57:59;99367.41;;;0.93;100.00
12879;BME280;20617;49.476;10.986;2023-02-16T02:00:13;99364.06;;;0.98;100.00
12879;BME280;20617;49.476;10.986;2023-02-16T02:02:22;99364.84;;;0.93;100.00
12879;BME280;20617;49.476;10.986;2023-02-16T02:04:35;99358.06;;;0.95;100.00
12879;BME280;20617;49.476;10.986;2023-02-16T02:06:55;99365.78;;;0.96;100.00
12879;BME280;20617;49.476;10.986;2023-02-16T02:09:03;99361.56;;;1.01;100.00
12879;BME280;20617;49.476;10.986;2023-02-16T02:11:13;99358.16;;;1.02;100.00
12879;BME280;20617;49.476;10.986;2023-02-16T02:13:31;99356.44;;;1.01;100.00
12879;BME280;20617;49.476;10.986;2023-02-16T02:15:39;99352.09;;;0.99;100.00
12879;BME280;20617;49.476;10.986;2023-02-16T02:17:47;99354.63;;;0.94;100.00
12879;BME280;20617;49.476;10.986;2023-02-16T02:20:03;99337.47;;;0.90;100.00
12879;BME280;20617;49.476;10.986;2023-02-16T02:22:25;99340.75;;;0.80;100.00
12879;BME280;20617;49.476;10.986;2023-02-16T02:25:20;99342.41;;;0.78;100.00
12879;BME280;20617;49.476;10.986;2023-02-16T02:27:37;99337.22;;;0.72;100.00
12879;BME280;20617;49.476;10.986;2023-02-16T02:30:07;99332.84;;;0.66;100.00
12879;BME280;20617;49.476;10.986;2023-02-16T02:32:22;99335.41;;;0.66;100.00
12879;BME280;20617;49.476;10.986;2023-02-16T02:34:38;99337.16;;;0.68;100.00
12879;BME280;20617;49.476;10.986;2023-02-16T02:36:50;99336.22;;;0.63;100.00
12879;BME280;20617;49.476;10.986;2023-02-16T02:39:06;99335.38;;;0.61;100.00
12879;BME280;20617;49.476;10.986;2023-02-16T02:41:22;99332.81;;;0.61;100.00
12879;BME280;20617;49.476;10.986;2023-02-16T02:43:54;99335.47;;;0.67;100.00
12879;BME280;20617;49.476;10.986;2023-02-16T02:46:05;99342.28;;;0.67;100.00
12879;BME280;20617;49.476;10.986;2023-02-16T02:48:11;99336.31;;;0.68;100.00
12879;BME280;20617;49.476;10.986;2023-02-16T02:50:35;99326.09;;;0.71;100.00
12879;BME280;20617;49.476;10.986;2023-02-16T02:52:42;99324.28;;;0.62;100.00
12879;BME280;20617;49.476;10.986;2023-02-16T02:54:48;99326.69;;;0.53;100.00
12879;BME280;20617;49.476;10.986;2023-02-16T02:57:10;99323.28;;;0.53;100.00
12879;BME280;20617;49.476;10.986;2023-02-16T02:59:36;99325.78;;;0.50;100.00
12879;BME280;20617;49.476;10.986;2023-02-16T03:01:59;99326.66;;;0.50;100.00
12879;BME280;20617;49.476;10.986;2023-02-16T03:04:07;99325.84;;;0.54;100.00
12879;BME280;20617;49.476;10.986;2023-02-16T03:06:16;99325.06;;;0.60;100.00
12879;BME280;20617;49.476;10.986;2023-02-16T03:08:25;99319.88;;;0.55;100.00
12879;BME280;20617;49.476;10.986;2023-02-16T03:10:32;99320.69;;;0.51;100.00
12879;BME280;20617;49.476;10.986;2023-02-16T03:12:51;99314.72;;;0.52;100.00
12879;BME280;20617;49.476;10.986;2023-02-16T03:14:58;99313.03;;;0.53;100.00
12879;BME280;20617;49.476;10.986;2023-02-16T03:17:07;99308.69;;;0.49;100.00
12879;BME280;20617;49.476;10.986;2023-02-16T03:19:26;99310.28;;;0.42;100.00
12879;BME280;20617;49.476;10.986;2023-02-16T03:21:44;99309.41;;;0.38;100.00
12879;BME280;20617;49.476;10.986;2023-02-16T03:24:04;99311.91;;;0.37;100.00
12879;BME280;20617;49.476;10.986;2023-02-16T03:26:24;99305.84;;;0.30;100.00
12879;BME280;20617;49.476;10.986;2023-02-16T03:28:43;99303.34;;;0.33;100.00
12879;BME280;20617;49.476;10.986;2023-02-16T03:31:05;99302.38;;;0.28;100.00
12879;BME280;20617;49.476;10.986;2023-02-16T03:33:11;99304.13;;;0.29;100.00
12879;BME280;20617;49.476;10.986;2023-02-16T03:35:17;99302.44;;;0.30;100.00
12879;BME280;20617;49.476;10.986;2023-02-16T03:37:21;99294.69;;;0.27;100.00
12879;BME280;20617;49.476;10.986;2023-02-16T03:39:27;99302.38;;;0.27;100.00
12879;BME280;20617;49.476;10.986;2023-02-16T03:41:34;99299.78;;;0.25;100.00
12879;BME280;20617;49.476;10.986;2023-02-16T03:43:41;99299.69;;;0.19;100.00
12879;BME280;20617;49.476;10.986;2023-02-16T03:45:46;99299.66;;;0.17;100.00
12879;BME280;20617;49.476;10.986;2023-02-16T03:47:54;99298.88;;;0.21;100.00
12879;BME280;20617;49.476;10.986;2023-02-16T03:49:59;99296.28;;;0.18;100.00
12879;BME280;20617;49.476;10.986;2023-02-16T03:52:04;99296.38;;;0.25;100.00
12879;BME280;20617;49.476;10.986;2023-02-16T03:54:09;99294.75;;;0.30;100.00
12879;BME280;20617;49.476;10.986;2023-02-16T03:56:14;99302.47;;;0.34;100.00
12879;BME280;20617;49.476;10.986;2023-02-16T03:58:21;99304.28;;;0.38;100.00
12879;BME280;20617;49.476;10.986;2023-02-16T04:00:27;99322.25;;;0.43;100.00
12879;BME280;20617;49.476;10.986;2023-02-16T04:02:32;99314.63;;;0.46;100.00
12879;BME280;20617;49.476;10.986;2023-02-16T04:04:39;99324.09;;;0.52;100.00
12879;BME280;20617;49.476;10.986;2023-02-16T04:06:44;99325.94;;;0.59;100.00
12879;BME280;20617;49.476;10.986;2023-02-16T04:08:49;99323.38;;;0.59;100.00
12879;BME280;20617;49.476;10.986;2023-02-16T04:10:55;99321.69;;;0.62;100.00
12879;BME280;20617;49.476;10.986;2023-02-16T04:13:01;99329.41;;;0.64;100.00
12879;BME280;20617;49.476;10.986;2023-02-16T04:15:06;99330.34;;;0.69;100.00
12879;BME280;20617;49.476;10.986;2023-02-16T04:17:11;99332.84;;;0.66;100.00
12879;BME280;20617;49.476;10.986;2023-02-16T04:19:16;99329.53;;;0.70;100.00
12879;BME280;20617;49.476;10.986;2023-02-16T04:21:23;99331.19;;;0.68;100.00
12879;BME280;20617;49.476;10.986;2023-02-16T04:23:28;99331.19;;;0.70;100.00
12879;BME280;20617;49.476;10.986;2023-02-16T04:25:33;99334.59;;;0.68;100.00
12879;BME280;20617;49.476;10.986;2023-02-16T04:27:38;99340.53;;;0.66;100.00
12879;BME280;20617;49.476;10.986;2023-02-16T04:29:43;99344.78;;;0.64;100.00
12879;BME280;20617;49.476;10.986;2023-02-16T04:31:47;99337.16;;;0.68;100.00
12879;BME280;20617;49.476;10.986;2023-02-16T04:33:54;99337.22;;;0.70;100.00
12879;BME280;20617;49.476;10.986;2023-02-16T04:35:59;99336.34;;;0.71;100.00
12879;BME280;20617;49.476;10.986;2023-02-16T04:38:06;99333.84;;;0.74;100.00
12879;BME280;20617;49.476;10.986;2023-02-16T04:40:13;99326.09;;;0.71;100.00
12879;BME280;20617;49.476;10.986;2023-02-16T04:42:18;99323.59;;;0.74;100.00
12879;BME280;20617;49.476;10.986;2023-02-16T04:44:23;99323.53;;;0.71;100.00
12879;BME280;20617;49.476;10.986;2023-02-16T04:46:28;99323.50;;;0.68;100.00
12879;BME280;20617;49.476;10.986;2023-02-16T04:48:33;99323.44;;;0.65;100.00
12879;BME280;20617;49.476;10.986;2023-02-16T04:50:37;99322.66;;;0.67;100.00
12879;BME280;20617;49.476;10.986;2023-02-16T04:52:42;99324.38;;;0.70;100.00
12879;BME280;20617;49.476;10.986;2023-02-16T04:54:50;99322.59;;;0.64;100.00
12879;BME280;20617;49.476;10.986;2023-02-16T04:56:58;99327.69;;;0.63;100.00
12879;BME280;20617;49.476;10.986;2023-02-16T04:59:03;99321.75;;;0.65;100.00
12879;BME280;20617;49.476;10.986;2023-02-16T05:01:07;99323.44;;;0.65;100.00
12879;BME280;20617;49.476;10.986;2023-02-16T05:03:12;99328.53;;;0.63;100.00
12879;BME280;20617;49.476;10.986;2023-02-16T05:05:17;99325.97;;;0.63;100.00
12879;BME280;20617;49.476;10.986;2023-02-16T05:07:22;99321.66;;;0.61;100.00
12879;BME280;20617;49.476;10.986;2023-02-16T05:09:27;99329.25;;;0.55;100.00
12879;BME280;20617;49.476;10.986;2023-02-16T05:11:34;99334.38;;;0.53;100.00
12879;BME280;20617;49.476;10.986;2023-02-16T05:13:52;99339.56;;;0.56;100.00
12879;BME280;20617;49.476;10.986;2023-02-16T05:16:10;99339.56;;;0.58;100.00
12879;BME280;20617;49.476;10.986;2023-02-16T05:18:15;99340.44;;;0.60;100.00
12879;BME280;20617;49.476;10.986;2023-02-16T05:20:20;99348.28;;;0.67;100.00
12879;BME280;20617;49.476;10.986;2023-02-16T05:22:45;99341.41;;;0.66;100.00
12879;BME280;20617;49.476;10.986;2023-02-16T05:24:51;99332.03;;;0.68;100.00
12879;BME280;20617;49.476;10.986;2023-02-16T05:26:58;99338.03;;;0.69;100.00
12879;BME280;20617;49.476;10.986;2023-02-16T05:29:03;99341.34;;;0.63;100.00
12879;BME280;20617;49.476;10.986;2023-02-16T05:31:08;99339.59;;;0.59;100.00
12879;BME280;20617;49.476;10.986;2023-02-16T05:33:13;99340.38;;;0.55;100.00
12879;BME280;20617;49.476;10.986;2023-02-16T05:35:18;99346.25;;;0.48;100.00
12879;BME280;20617;49.476;10.986;2023-02-16T05:37:22;99347.09;;;0.49;100.00
12879;BME280;20617;49.476;10.986;2023-02-16T05:39:27;99348.84;;;0.51;100.00
12879;BME280;20617;49.476;10.986;2023-02-16T05:41:32;99360.00;;;0.53;100.00
12879;BME280;20617;49.476;10.986;2023-02-16T05:43:39;99355.81;;;0.58;100.00
12879;BME280;20617;49.476;10.986;2023-02-16T05:45:45;99359.28;;;0.62;100.00
12879;BME280;20617;49.476;10.986;2023-02-16T05:47:51;99359.34;;;0.66;100.00
12879;BME280;20617;49.476;10.986;2023-02-16T05:49:55;99365.41;;;0.72;100.00
12879;BME280;20617;49.476;10.986;2023-02-16T05:52:00;99360.34;;;0.76;100.00
12879;BME280;20617;49.476;10.986;2023-02-16T05:54:05;99358.59;;;0.74;100.00
12879;BME280;20617;49.476;10.986;2023-02-16T05:56:11;99358.66;;;0.77;100.00
12879;BME280;20617;49.476;10.986;2023-02-16T05:58:16;99354.31;;;0.73;100.00
12879;BME280;20617;49.476;10.986;2023-02-16T06:00:24;99356.84;;;0.73;100.00
12879;BME280;20617;49.476;10.986;2023-02-16T06:02:29;99355.19;;;0.73;100.00
12879;BME280;20617;49.476;10.986;2023-02-16T06:04:34;99353.47;;;0.74;100.00
12879;BME280;20617;49.476;10.986;2023-02-16T06:06:39;99350.13;;;0.78;100.00
12879;BME280;20617;49.476;10.986;2023-02-16T06:08:45;99363.81;;;0.80;100.00
12879;BME280;20617;49.476;10.986;2023-02-16T06:10:50;99364.66;;;0.79;100.00
12879;BME280;20617;49.476;10.986;2023-02-16T06:12:55;99368.91;;;0.78;100.00
12879;BME280;20617;49.476;10.986;2023-02-16T06:15:00;99376.56;;;0.75;100.00
12879;BME280;20617;49.476;10.986;2023-02-16T06:17:08;99376.59;;;0.78;100.00
12879;BME280;20617;49.476;10.986;2023-02-16T06:19:13;99377.44;;;0.76;100.00
12879;BME280;20617;49.476;10.986;2023-02-16T06:21:18;99375.72;;;0.76;100.00
12879;BME280;20617;49.476;10.986;2023-02-16T06:23:23;99374.03;;;0.77;100.00
12879;BME280;20617;49.476;10.986;2023-02-16T06:25:28;99375.75;;;0.78;100.00
12879;BME280;20617;49.476;10.986;2023-02-16T06:27:33;99379.13;;;0.75;100.00
12879;BME280;20617;49.476;10.986;2023-02-16T06:29:38;99382.56;;;0.76;100.00
12879;BME280;20617;49.476;10.986;2023-02-16T06:31:43;99374.00;;;0.75;100.00
12879;BME280;20617;49.476;10.986;2023-02-16T06:33:56;99374.03;;;0.78;100.00
12879;BME280;20617;49.476;10.986;2023-02-16T06:36:06;99370.56;;;0.75;100.00
12879;BME280;20617;49.476;10.986;2023-02-16T06:38:11;99376.63;;;0.80;100.00
12879;BME280;20617;49.476;10.986;2023-02-16T06:40:16;99368.94;;;0.81;100.00
12879;BME280;20617;49.476;10.986;2023-02-16T06:42:21;99380.94;;;0.82;100.00
12879;BME280;20617;49.476;10.986;2023-02-16T06:44:26;99386.94;;;0.83;100.00
12879;BME280;20617;49.476;10.986;2023-02-16T06:46:31;99386.03;;;0.81;100.00
12879;BME280;20617;49.476;10.986;2023-02-16T06:48:36;99394.53;;;0.78;100.00
12879;BME280;20617;49.476;10.986;2023-02-16T06:50:43;99398.81;;;0.76;100.00
12879;BME280;20617;49.476;10.986;2023-02-16T06:52:48;99398.81;;;0.76;100.00
12879;BME280;20617;49.476;10.986;2023-02-16T06:54:56;99403.13;;;0.79;100.00
12879;BME280;20617;49.476;10.986;2023-02-16T06:57:01;99398.75;;;0.75;100.00
12879;BME280;20617;49.476;10.986;2023-02-16T06:59:06;99396.19;;;0.73;100.00
12879;BME280;20617;49.476;10.986;2023-02-16T07:01:11;99399.59;;;0.74;100.00
12879;BME280;20617;49.476;10.986;2023-02-16T07:03:16;99403.84;;;0.72;100.00
12879;BME280;20617;49.476;10.986;2023-02-16T07:05:21;99402.94;;;0.70;100.00
12879;BME280;20617;49.476;10.986;2023-02-16T07:07:28;99398.72;;;0.72;100.00
12879;BME280;20617;49.476;10.986;2023-02-16T07:09:34;99402.13;;;0.71;100.00
12879;BME280;20617;49.476;10.986;2023-02-16T07:11:39;99394.44;;;0.72;100.00
12879;BME280;20617;49.476;10.986;2023-02-16T07:13:44;99397.94;;;0.76;100.00
12879;BME280;20617;49.476;10.986;2023-02-16T07:15:49;99395.38;;;0.77;100.00
12879;BME280;20617;49.476;10.986;2023-02-16T07:17:56;99391.13;;;0.78;100.00
12879;BME280;20617;49.476;10.986;2023-02-16T07:20:01;99383.47;;;0.81;100.00
12879;BME280;20617;49.476;10.986;2023-02-16T07:22:07;99375.78;;;0.81;100.00
12879;BME280;20617;49.476;10.986;2023-02-16T07:24:15;99387.78;;;0.82;100.00
12879;BME280;20617;49.476;10.986;2023-02-16T07:26:20;99385.25;;;0.85;100.00
12879;BME280;20617;49.476;10.986;2023-02-16T07:28:25;99386.09;;;0.84;100.00
12879;BME280;20617;49.476;10.986;2023-02-16T07:30:29;99381.84;;;0.84;100.00
12879;BME280;20617;49.476;10.986;2023-02-16T07:32:34;99380.91;;;0.81;100.00
12879;BME280;20617;49.476;10.986;2023-02-16T07:34:41;99397.06;;;0.75;100.00
12879;BME280;20617;49.476;10.986;2023-02-16T07:36:46;99393.69;;;0.78;100.00
12879;BME280;20617;49.476;10.986;2023-02-16T07:38:51;99395.38;;;0.77;100.00
12879;BME280;20617;49.476;10.986;2023-02-16T07:40:58;99380.88;;;0.78;100.00
12879;BME280;20617;49.476;10.986;2023-02-16T07:43:05;99380.06;;;0.79;100.00
12879;BME280;20617;49.476;10.986;2023-02-16T07:45:10;99372.34;;;0.79;100.00
12879;BME280;20617;49.476;10.986;2023-02-16T07:47:15;99380.94;;;0.82;100.00
12879;BME280;20617;49.476;10.986;2023-02-16T07:49:19;99381.00;;;0.87;100.00
12879;BME280;20617;49.476;10.986;2023-02-16T07:51:27;99381.09;;;0.93;100.00
12879;BME280;20617;49.476;10.986;2023-02-16T07:53:32;99376.88;;;0.97;100.00
12879;BME280;20617;49.476;10.986;2023-02-16T07:55:37;99386.38;;;1.04;100.00
12879;BME280;20617;49.476;10.986;2023-02-16T07:57:45;99377.00;;;1.06;100.00
12879;BME280;20617;49.476;10.986;2023-02-16T07:59:55;99374.44;;;1.06;100.00
12879;BME280;20617;49.476;10.986;2023-02-16T08:02:00;99371.00;;;1.04;100.00
12879;BME280;20617;49.476;10.986;2023-02-16T08:04:05;99379.50;;;1.01;100.00
12879;BME280;20617;49.476;10.986;2023-02-16T08:06:10;99381.25;;;1.02;100.00
12879;BME280;20617;49.476;10.986;2023-02-16T08:08:15;99379.59;;;1.07;100.00
12879;BME280;20617;49.476;10.986;2023-02-16T08:10:20;99369.38;;;1.09;100.00
12879;BME280;20617;49.476;10.986;2023-02-16T08:12:25;99365.81;;;1.01;100.00
12879;BME280;20617;49.476;10.986;2023-02-16T08:14:32;99367.56;;;1.03;100.00
12879;BME280;20617;49.476;10.986;2023-02-16T08:16:37;99362.44;;;1.03;100.00
12879;BME280;20617;49.476;10.986;2023-02-16T08:18:42;99367.63;;;1.06;100.00
12879;BME280;20617;49.476;10.986;2023-02-16T08:20:47;99365.09;;;1.09;100.00
12879;BME280;20617;49.476;10.986;2023-02-16T08:23:05;99372.88;;;1.16;100.00
12879;BME280;20617;49.476;10.986;2023-02-16T08:25:11;99373.88;;;1.25;100.00
12879;BME280;20617;49.476;10.986;2023-02-16T08:27:16;99371.38;;;1.33;100.00
12879;BME280;20617;49.476;10.986;2023-02-16T08:29:22;99368.84;;;1.36;100.00
12879;BME280;20617;49.476;10.986;2023-02-16T08:31:31;99366.31;;;1.38;100.00
12879;BME280;20617;49.476;10.986;2023-02-16T08:33:42;99373.25;;;1.45;100.00
12879;BME280;20617;49.476;10.986;2023-02-16T08:35:50;99372.44;;;1.50;100.00
12879;BME280;20617;49.476;10.986;2023-02-16T08:37:57;99375.03;;;1.50;100.00
12879;BME280;20617;49.476;10.986;2023-02-16T08:40:04;99380.22;;;1.55;100.00
12879;BME280;20617;49.476;10.986;2023-02-16T08:42:10;99375.16;;;1.61;100.00
12879;BME280;20617;49.476;10.986;2023-02-16T08:44:16;99377.78;;;1.67;100.00
12879;BME280;20617;49.476;10.986;2023-02-16T08:46:21;99377.00;;;1.73;100.00
12879;BME280;20617;49.476;10.986;2023-02-16T08:48:29;99367.66;;;1.78;100.00
12879;BME280;20617;49.476;10.986;2023-02-16T08:50:37;99372.81;;;1.83;100.00
12879;BME280;20617;49.476;10.986;2023-02-16T08:52:42;99367.75;;;1.87;100.00
12879;BME280;20617;49.476;10.986;2023-02-16T08:54:47;99372.94;;;1.95;100.00
12879;BME280;20617;49.476;10.986;2023-02-16T08:56:55;99373.00;;;1.98;100.00
12879;BME280;20617;49.476;10.986;2023-02-16T08:59:01;99374.72;;;2.00;100.00
12879;BME280;20617;49.476;10.986;2023-02-16T09:01:06;99377.31;;;2.03;100.00
12879;BME280;20617;49.476;10.986;2023-02-16T09:03:13;99379.16;;;2.14;100.00
12879;BME280;20617;49.476;10.986;2023-02-16T09:05:22;99386.06;;;2.21;100.00
12879;BME280;20617;49.476;10.986;2023-02-16T09:07:28;99379.19;;;2.20;100.00
12879;BME280;20617;49.476;10.986;2023-02-16T09:09:35;99389.59;;;2.31;100.00
12879;BME280;20617;49.476;10.986;2023-02-16T09:11:43;99389.72;;;2.46;100.00
12879;BME280;20617;49.476;10.986;2023-02-16T09:13:49;99386.38;;;2.55;100.00
12879;BME280;20617;49.476;10.986;2023-02-16T09:16:00;99392.44;;;2.63;100.00
12879;BME280;20617;49.476;10.986;2023-02-16T09:18:06;99399.34;;;2.71;100.00
12879;BME280;20617;49.476;10.986;2023-02-16T09:20:13;99403.72;;;2.82;100.00
12879;BME280;20617;49.476;10.986;2023-02-16T09:22:21;99409.81;;;2.91;100.00
12879;BME280;20617;49.476;10.986;2023-02-16T09:24:26;99412.44;;;3.01;100.00
12879;BME280;20617;49.476;10.986;2023-02-16T09:26:31;99406.44;;;3.00;100.00
12879;BME280;20617;49.476;10.986;2023-02-16T09:28:39;99400.47;;;3.06;100.00
12879;BME280;20617;49.476;10.986;2023-02-16T09:30:44;99393.66;;;3.15;100.00
12879;BME280;20617;49.476;10.986;2023-02-16T09:32:49;99387.72;;;3.27;100.00
12879;BME280;20617;49.476;10.986;2023-02-16T09:34:57;99383.47;;;3.35;100.00
12879;BME280;20617;49.476;10.986;2023-02-16T09:37:02;99386.97;;;3.47;100.00
12879;BME280;20617;49.476;10.986;2023-02-16T09:39:10;99386.16;;;3.60;100.00
12879;BME280;20617;49.476;10.986;2023-02-16T09:41:22;99387.91;;;3.70;100.00
12879;BME280;20617;49.476;10.986;2023-02-16T09:43:33;99376.78;;;3.83;100.00
12879;BME280;20617;49.476;10.986;2023-02-16T09:45:44;99379.41;;;3.96;100.00
12879;BME280;20617;49.476;10.986;2023-02-16T09:47:51;99380.28;;;4.10;100.00
12879;BME280;20617;49.476;10.986;2023-02-16T09:49:58;99372.56;;;4.21;100.00
12879;BME280;20617;49.476;10.986;2023-02-16T09:52:12;99381.22;;;4.34;100.00
12879;BME280;20617;49.476;10.986;2023-02-16T09:54:32;99375.19;;;4.38;100.00
12879;BME280;20617;49.476;10.986;2023-02-16T09:56:42;99366.59;;;4.46;100.00
12879;BME280;20617;49.476;10.986;2023-02-16T09:58:54;99359.72;;;4.53;100.00
12879;BME280;20617;49.476;10.986;2023-02-16T10:01:07;99363.16;;;4.63;100.00
12879;BME280;20617;49.476;10.986;2023-02-16T10:05:43;99360.56;;;4.84;100.00
12879;BME280;20617;49.476;10.986;2023-02-16T10:07:58;99351.06;;;4.91;100.00
12879;BME280;20617;49.476;10.986;2023-02-16T10:10:10;99357.13;;;4.97;100.00
12879;BME280;20617;49.476;10.986;2023-02-16T10:12:20;99353.63;;;5.11;100.00
12879;BME280;20617;49.476;10.986;2023-02-16T10:14:31;99357.91;;;5.21;100.00
12879;BME280;20617;49.476;10.986;2023-02-16T10:16:40;99350.97;;;5.29;100.00
12879;BME280;20617;49.476;10.986;2023-02-16T10:18:48;99346.63;;;5.40;100.00
12879;BME280;20617;49.476;10.986;2023-02-16T10:20:59;99341.44;;;5.50;100.00
12879;BME280;20617;49.476;10.986;2023-02-16T10:23:16;99339.69;;;5.59;100.00
12879;BME280;20617;49.476;10.986;2023-02-16T10:25:35;99348.22;;;5.72;100.00
12879;BME280;20617;49.476;10.986;2023-02-16T10:27:46;99332.69;;;5.78;100.00
12879;BME280;20617;49.476;10.986;2023-02-16T10:29:54;99326.63;;;5.85;100.00
12879;BME280;20617;49.476;10.986;2023-02-16T10:32:09;99335.22;;;5.97;100.00
12879;BME280;20617;49.476;10.986;2023-02-16T10:34:19;99330.00;;;6.01;100.00
12879;BME280;20617;49.476;10.986;2023-02-16T10:36:31;99325.66;;;6.11;100.00
12879;BME280;20617;49.476;10.986;2023-02-16T10:38:44;99324.72;;;6.18;100.00
12879;BME280;20617;49.476;10.986;2023-02-16T10:41:00;99314.34;;;6.24;100.00
12879;BME280;20617;49.476;10.986;2023-02-16T10:43:12;99318.59;;;6.34;100.00
12879;BME280;20617;49.476;10.986;2023-02-16T10:45:24;99316.78;;;6.41;100.00
12879;BME280;20617;49.476;10.986;2023-02-16T10:47:34;99311.53;;;6.50;100.00
12879;BME280;20617;49.476;10.986;2023-02-16T10:49:40;99314.88;;;6.60;100.00
12879;BME280;20617;49.476;10.986;2023-02-16T10:51:48;99305.31;;;6.71;100.00
12879;BME280;20617;49.476;10.986;2023-02-16T10:53:58;99300.91;;;6.81;100.00
12879;BME280;20617;49.476;10.986;2023-02-16T10:56:22;99294.72;;;6.94;100.00
12879;BME280;20617;49.476;10.986;2023-02-16T10:58:36;99297.19;;;7.05;100.00
12879;BME280;20617;49.476;10.986;2023-02-16T11:00:49;99297.09;;;7.14;100.00
12879;BME280;20617;49.476;10.986;2023-02-16T11:03:01;99286.66;;;7.20;100.00
12879;BME280;20617;49.476;10.986;2023-02-16T11:05:28;99276.13;;;7.34;100.00
12879;BME280;20617;49.476;10.986;2023-02-16T11:07:33;99280.41;;;7.37;100.00
12879;BME280;20617;49.476;10.986;2023-02-16T11:09:39;99273.50;;;7.37;100.00
12879;BME280;20617;49.476;10.986;2023-02-16T11:11:47;99275.13;;;7.44;100.00
12879;BME280;20617;49.476;10.986;2023-02-16T11:13:57;99269.75;;;7.58;100.00